createdAt,value
2022-08-03T00:02:52.248Z,1.92
2022-08-03T00:06:03.903Z,2.22
2022-08-03T00:09:12.595Z,2.00
2022-08-03T00:12:18.286Z,2.58
2022-08-03T00:15:24.021Z,2.38
2022-08-03T00:18:31.102Z,1.90
2022-08-03T00:21:35.993Z,2.58
2022-08-03T00:24:42.645Z,3.08
2022-08-03T00:27:48.326Z,3.22
2022-08-03T00:30:53.418Z,3.60
2022-08-03T00:34:03.168Z,3.08
2022-08-03T00:37:08.677Z,3.13
2022-08-03T00:40:16.960Z,2.90
2022-08-03T00:43:26.726Z,3.25
2022-08-03T00:46:31.887Z,3.92
2022-08-03T00:49:37.759Z,3.65
2022-08-03T00:52:43.272Z,3.95
2022-08-03T00:55:50.276Z,3.10
2022-08-03T00:58:57.931Z,3.35
2022-08-03T01:02:02.915Z,3.65
2022-08-03T01:05:08.700Z,4.53
2022-08-03T01:08:24.170Z,3.45
2022-08-03T01:11:59.973Z,3.58
2022-08-03T01:15:14.163Z,3.83
2022-08-03T01:18:23.365Z,3.30
2022-08-03T01:21:32.839Z,3.67
2022-08-03T01:24:49.595Z,3.58
2022-08-03T01:28:05.977Z,4.10
2022-08-03T01:31:18.113Z,3.72
2022-08-03T01:34:25.832Z,3.67
2022-08-03T01:37:36.308Z,4.65
2022-08-03T01:40:46.998Z,4.28
2022-08-03T01:44:30.209Z,3.92
2022-08-03T01:47:23.468Z,4.60
2022-08-03T01:50:31.887Z,4.20
2022-08-03T01:53:38.051Z,4.47
2022-08-03T01:56:49.040Z,4.25
2022-08-03T01:59:58.175Z,4.97
2022-08-03T02:03:06.817Z,4.10
2022-08-03T02:06:58.930Z,3.55
2022-08-03T02:09:40.972Z,5.03
2022-08-03T02:12:51.084Z,4.47
2022-08-03T02:15:57.980Z,3.92
2022-08-03T02:19:07.436Z,4.35
2022-08-03T02:22:14.953Z,4.05
2022-08-03T02:25:20.651Z,4.25
2022-08-03T02:28:36.024Z,3.80
2022-08-03T02:31:44.627Z,3.30
2022-08-03T02:34:54.117Z,3.95
2022-08-03T02:38:03.231Z,4.32
2022-08-03T02:41:14.706Z,4.03
2022-08-03T02:44:28.551Z,3.88
2022-08-03T02:47:53.986Z,4.38
2022-08-03T02:51:03.895Z,4.43
2022-08-03T02:54:10.590Z,4.38
2022-08-03T02:57:16.977Z,5.15
2022-08-03T03:00:28.064Z,5.57
2022-08-03T03:03:38.605Z,4.40
2022-08-03T03:06:53.499Z,5.22
2022-08-03T03:10:02.775Z,5.53
2022-08-03T03:13:09.587Z,4.75
2022-08-03T03:16:16.442Z,4.10
2022-08-03T03:19:22.728Z,4.97
2022-08-03T03:22:32.028Z,4.75
2022-08-03T03:25:37.714Z,4.63
2022-08-03T03:28:44.910Z,5.05
2022-08-03T03:31:50.726Z,5.13
2022-08-03T03:34:59.197Z,5.80
2022-08-03T03:38:05.982Z,5.03
2022-08-03T03:41:11.511Z,4.65
2022-08-03T03:44:17.253Z,4.70
2022-08-03T03:47:32.119Z,4.75
2022-08-03T03:50:40.847Z,4.95
2022-08-03T03:53:58.059Z,4.57
2022-08-03T03:57:04.730Z,4.95
2022-08-03T04:00:11.150Z,4.45
2022-08-03T04:03:16.595Z,4.47
2022-08-03T04:06:39.167Z,5.10
2022-08-03T04:10:08.936Z,5.22
2022-08-03T04:13:23.020Z,4.25
2022-08-03T04:16:32.380Z,4.35
2022-08-03T04:19:41.242Z,4.80
2022-08-03T04:22:49.043Z,5.90
2022-08-03T04:25:58.766Z,6.00
2022-08-03T04:29:06.209Z,6.50
2022-08-03T04:32:13.237Z,8.35
2022-08-03T04:35:19.727Z,5.60
2022-08-03T04:38:26.593Z,5.15
2022-08-03T04:41:33.449Z,5.45
2022-08-03T04:45:01.647Z,4.95
2022-08-03T04:48:07.203Z,5.30
2022-08-03T04:51:13.263Z,5.22
2022-08-03T04:54:18.598Z,5.10
2022-08-03T04:57:25.631Z,9.98
2022-08-03T05:00:31.516Z,9.75
2022-08-03T05:03:36.771Z,5.43
2022-08-03T05:06:48.015Z,4.97
2022-08-03T05:10:01.339Z,5.00
2022-08-03T05:13:11.999Z,5.10
2022-08-03T05:16:17.279Z,6.47
2022-08-03T05:19:22.188Z,6.70
2022-08-03T05:22:27.357Z,5.50
2022-08-03T05:25:32.549Z,5.97
2022-08-03T05:28:39.477Z,6.10
2022-08-03T05:31:56.814Z,7.60
2022-08-03T05:36:00.903Z,6.00
2022-08-03T05:38:28.748Z,6.07
2022-08-03T05:41:40.316Z,10.02
2022-08-03T05:44:47.061Z,5.32
2022-08-03T05:47:52.634Z,5.75
2022-08-03T05:50:58.163Z,7.80
2022-08-03T05:54:02.939Z,5.60
2022-08-03T05:57:08.510Z,5.13
2022-08-03T06:00:16.036Z,6.20
2022-08-03T06:03:21.942Z,5.82
2022-08-03T06:06:32.101Z,5.97
2022-08-03T06:10:35.711Z,5.53
2022-08-03T06:13:02.915Z,4.43
2022-08-03T06:16:09.416Z,4.75
2022-08-03T06:19:14.681Z,4.18
2022-08-03T06:22:19.747Z,4.70
2022-08-03T06:25:26.920Z,3.38
2022-08-03T06:28:51.453Z,4.13
2022-08-03T06:31:59.198Z,5.15
2022-08-03T06:35:05.324Z,4.43
2022-08-03T06:38:10.342Z,4.22
2022-08-03T06:41:16.147Z,3.95
2022-08-03T06:44:21.468Z,4.55
2022-08-03T06:47:28.332Z,4.53
2022-08-03T06:50:34.279Z,3.70
2022-08-03T06:53:39.959Z,4.25
2022-08-03T06:56:44.873Z,4.15
2022-08-03T07:00:09.847Z,3.80
2022-08-03T07:03:17.241Z,4.15
2022-08-03T07:06:22.329Z,4.07
2022-08-03T07:09:28.094Z,4.47
2022-08-03T07:12:33.850Z,3.85
2022-08-03T07:15:55.684Z,3.70
2022-08-03T07:19:02.615Z,3.90
2022-08-03T07:22:08.778Z,4.07
2022-08-03T07:25:14.345Z,4.10
2022-08-03T07:28:19.765Z,3.67
2022-08-03T07:31:25.166Z,3.78
2022-08-03T07:34:32.324Z,4.32
2022-08-03T07:37:37.950Z,4.13
2022-08-03T07:40:46.176Z,3.70
2022-08-03T07:43:51.917Z,3.92
2022-08-03T07:46:57.918Z,4.38
2022-08-03T07:50:08.545Z,3.40
2022-08-03T07:56:19.656Z,3.42
2022-08-03T07:59:25.223Z,3.97
2022-08-03T08:02:30.464Z,3.60
2022-08-03T08:05:37.253Z,4.25
2022-08-03T08:08:43.124Z,3.63
2022-08-03T08:11:47.819Z,3.75
2022-08-03T08:14:52.853Z,3.97
2022-08-03T08:18:00.112Z,3.22
2022-08-03T08:21:06.807Z,3.55
2022-08-03T08:24:18.088Z,3.40
2022-08-03T08:27:23.589Z,3.00
2022-08-03T08:30:29.319Z,4.10
2022-08-03T08:34:02.485Z,3.80
2022-08-03T08:37:03.857Z,3.55
2022-08-03T08:40:10.410Z,4.00
2022-08-03T08:43:15.726Z,3.42
2022-08-03T08:46:22.786Z,4.57
2022-08-03T08:49:30.338Z,3.50
2022-08-03T08:52:37.657Z,3.65
2022-08-03T08:55:58.789Z,3.92
2022-08-03T08:59:05.975Z,3.67
2022-08-03T09:02:11.369Z,2.95
2022-08-03T09:05:18.602Z,3.75
2022-08-03T09:08:25.312Z,2.83
2022-08-03T09:11:51.629Z,4.13
2022-08-03T09:15:15.907Z,3.50
2022-08-03T09:18:32.827Z,3.78
2022-08-03T09:21:38.392Z,3.10
2022-08-03T09:25:22.933Z,3.55
2022-08-03T09:29:00.060Z,3.30
2022-08-03T09:31:49.123Z,3.85
2022-08-03T09:34:58.141Z,3.40
2022-08-03T09:38:14.657Z,4.70
2022-08-03T09:41:21.454Z,5.13
2022-08-03T09:44:35.269Z,3.65
2022-08-03T09:47:45.011Z,3.45
2022-08-03T09:50:58.749Z,3.22
2022-08-03T09:54:27.662Z,2.88
2022-08-03T09:57:34.573Z,3.15
2022-08-03T10:00:54.881Z,3.45
2022-08-03T10:04:04.111Z,2.90
2022-08-03T10:07:11.282Z,3.15
2022-08-03T10:10:28.817Z,5.07
2022-08-03T10:13:39.206Z,4.05
2022-08-03T10:16:50.051Z,3.10
2022-08-03T10:19:57.323Z,3.33
2022-08-03T10:23:03.811Z,3.20
2022-08-03T10:26:14.073Z,2.92
2022-08-03T10:29:25.471Z,3.10
2022-08-03T10:32:32.856Z,3.00
2022-08-03T10:35:41.279Z,2.75
2022-08-03T10:38:52.662Z,2.78
2022-08-03T10:42:02.472Z,2.80
2022-08-03T10:45:15.558Z,4.18
2022-08-03T10:48:22.376Z,3.28
2022-08-03T10:51:31.998Z,2.85
2022-08-03T10:55:00.259Z,2.60
2022-08-03T10:58:11.046Z,3.15
2022-08-03T11:01:19.092Z,2.63
2022-08-03T11:04:25.491Z,2.78
2022-08-03T11:07:30.986Z,3.10
2022-08-03T11:10:36.531Z,2.53
2022-08-03T11:13:58.813Z,2.80
2022-08-03T11:17:15.181Z,3.00
2022-08-03T11:20:47.486Z,3.30
2022-08-03T11:24:02.643Z,2.42
2022-08-03T11:27:19.006Z,3.60
2022-08-03T11:30:27.835Z,2.75
2022-08-03T11:33:34.538Z,2.60
2022-08-03T11:37:12.814Z,3.13
2022-08-03T11:40:40.402Z,2.92
2022-08-03T11:43:46.298Z,2.88
2022-08-03T11:46:51.630Z,2.90
2022-08-03T11:50:01.971Z,2.72
2022-08-03T11:53:08.392Z,2.55
2022-08-03T11:56:13.935Z,2.35
2022-08-03T11:59:22.037Z,2.70
2022-08-03T12:02:27.759Z,2.75
2022-08-03T12:05:51.428Z,2.08
2022-08-03T12:08:57.499Z,2.72
2022-08-03T12:12:02.865Z,3.17
2022-08-03T12:15:08.877Z,2.30
2022-08-03T12:18:16.200Z,2.65
2022-08-03T12:21:24.645Z,2.42
2022-08-03T12:24:41.695Z,2.22
2022-08-03T12:27:47.030Z,2.20
2022-08-03T12:30:54.933Z,3.05
2022-08-03T12:34:03.184Z,2.90
2022-08-03T12:37:22.045Z,2.50
2022-08-03T12:40:28.636Z,2.58
2022-08-03T12:43:36.655Z,1.73
2022-08-03T12:46:47.989Z,2.65
2022-08-03T12:49:54.710Z,2.00
2022-08-03T12:53:02.569Z,2.35
2022-08-03T12:56:08.052Z,2.40
2022-08-03T12:59:32.488Z,2.47
2022-08-03T13:02:40.988Z,3.20
2022-08-03T13:05:51.598Z,2.88
2022-08-03T13:09:06.327Z,2.72
2022-08-03T13:12:12.867Z,2.45
2022-08-03T13:15:18.611Z,3.00
2022-08-03T13:18:23.729Z,3.17
2022-08-03T13:21:28.589Z,2.95
2022-08-03T13:24:35.358Z,2.83
2022-08-03T13:28:04.930Z,3.05
2022-08-03T13:31:07.526Z,2.58
2022-08-03T13:34:12.421Z,2.72
2022-08-03T13:37:17.927Z,2.53
2022-08-03T13:40:30.326Z,2.55
2022-08-03T13:43:35.708Z,2.63
2022-08-03T13:46:41.311Z,2.30
2022-08-03T13:49:59.610Z,2.13
2022-08-03T13:53:06.961Z,2.05
2022-08-03T13:56:13.571Z,2.22
2022-08-03T13:59:18.540Z,2.38
2022-08-03T14:02:24.189Z,2.88
2022-08-03T14:05:32.231Z,2.65
2022-08-03T14:08:37.600Z,2.30
2022-08-03T14:12:06.946Z,1.90
2022-08-03T14:15:12.994Z,1.98
2022-08-03T14:18:27.688Z,2.03
2022-08-03T14:21:35.494Z,2.10
2022-08-03T14:24:40.934Z,2.35
2022-08-03T14:27:49.075Z,2.00
2022-08-03T14:30:55.808Z,2.72
2022-08-03T14:34:01.028Z,3.10
2022-08-03T14:37:06.234Z,2.17
2022-08-03T14:40:11.989Z,1.60
2022-08-03T14:43:20.311Z,2.35
2022-08-03T14:46:25.752Z,1.35
2022-08-03T14:50:31.187Z,1.80
2022-08-03T14:52:58.498Z,1.42
2022-08-03T14:56:07.960Z,1.35
2022-08-03T14:59:17.001Z,1.90
2022-08-03T15:02:23.760Z,1.50
2022-08-03T15:05:29.571Z,1.92
2022-08-03T15:08:35.094Z,1.58
2022-08-03T15:11:40.513Z,1.48
2022-08-03T15:14:47.540Z,2.25
2022-08-03T15:18:00.030Z,2.17
2022-08-03T15:21:07.564Z,1.77
2022-08-03T15:24:33.009Z,1.60
2022-08-03T15:28:03.305Z,1.60
2022-08-03T15:31:05.591Z,1.80
2022-08-03T15:34:12.031Z,1.60
2022-08-03T15:37:17.549Z,1.98
2022-08-03T15:40:23.163Z,1.63
2022-08-03T15:43:28.980Z,1.90
2022-08-03T15:46:35.730Z,1.98
2022-08-03T15:49:40.712Z,1.55
2022-08-03T15:52:45.691Z,1.92
2022-08-03T15:55:50.630Z,1.58
2022-08-03T15:59:09.945Z,2.10
2022-08-03T16:02:19.931Z,2.03
2022-08-03T16:05:25.638Z,2.88
2022-08-03T16:08:31.675Z,4.80
2022-08-03T16:11:37.406Z,2.20
2022-08-03T16:14:52.857Z,1.60
2022-08-03T16:17:59.724Z,2.22
2022-08-03T16:21:05.084Z,2.67
2022-08-03T16:24:17.357Z,2.53
2022-08-03T16:27:56.663Z,2.25
2022-08-03T16:30:51.639Z,1.65
2022-08-03T16:33:58.788Z,2.83
2022-08-03T16:37:35.338Z,2.15
2022-08-03T16:40:31.069Z,1.75
2022-08-03T16:43:36.299Z,2.10
2022-08-03T16:46:42.890Z,1.80
2022-08-03T16:49:55.432Z,2.00
2022-08-03T16:53:03.483Z,2.17
2022-08-03T16:56:10.737Z,2.78
2022-08-03T16:59:16.249Z,1.88
2022-08-03T17:02:26.167Z,2.00
2022-08-03T17:05:47.107Z,1.58
2022-08-03T17:08:55.476Z,1.65
2022-08-03T17:12:01.169Z,1.35
2022-08-03T17:15:10.668Z,1.65
2022-08-03T17:18:18.437Z,1.45
2022-08-03T17:21:33.810Z,1.58
2022-08-03T17:24:47.976Z,1.40
2022-08-03T17:28:49.099Z,1.70
2022-08-03T17:31:23.581Z,2.13
2022-08-03T17:34:38.133Z,1.60
2022-08-03T17:37:57.593Z,1.83
2022-08-03T17:41:10.972Z,1.92
2022-08-03T17:44:31.144Z,2.05
2022-08-03T17:47:43.646Z,2.38
2022-08-03T17:50:54.825Z,1.95
2022-08-03T17:54:18.103Z,3.08
2022-08-03T17:58:02.154Z,1.90
2022-08-03T18:02:02.014Z,1.88
2022-08-03T18:05:03.093Z,1.95
2022-08-03T18:08:26.840Z,1.50
2022-08-03T18:11:38.839Z,1.65
2022-08-03T18:14:57.571Z,2.25
2022-08-03T18:18:10.861Z,2.10
2022-08-03T18:21:17.481Z,1.77
2022-08-03T18:24:25.457Z,1.70
2022-08-03T18:27:42.525Z,1.85
2022-08-03T18:34:33.032Z,1.60
2022-08-03T18:37:52.180Z,1.50
2022-08-03T18:40:57.692Z,2.00
2022-08-03T18:44:08.066Z,5.25
2022-08-03T18:47:28.041Z,3.10
2022-08-03T18:50:58.505Z,1.50
2022-08-03T18:54:11.238Z,1.33
2022-08-03T18:57:42.638Z,2.08
2022-08-03T19:00:59.494Z,2.10
2022-08-03T19:04:10.268Z,1.70
2022-08-03T19:07:22.215Z,1.48
2022-08-03T19:10:35.231Z,1.77
2022-08-03T19:13:50.282Z,1.52
2022-08-03T19:17:06.224Z,1.92
2022-08-03T19:20:12.313Z,1.85
2022-08-03T19:23:24.014Z,2.00
2022-08-03T19:26:31.039Z,1.80
2022-08-03T19:29:59.778Z,1.60
2022-08-03T19:33:09.660Z,1.75
2022-08-03T19:36:16.018Z,1.80
2022-08-03T19:39:24.059Z,1.50
2022-08-03T19:42:35.285Z,2.05
2022-08-03T19:46:05.305Z,1.80
2022-08-03T19:49:16.251Z,1.40
2022-08-03T19:52:24.368Z,2.28
2022-08-03T19:55:48.871Z,1.67
2022-08-03T19:58:56.450Z,1.60
2022-08-03T20:02:06.098Z,1.60
2022-08-03T20:05:15.273Z,1.60
2022-08-03T20:08:23.089Z,3.08
2022-08-03T20:11:29.048Z,1.98
2022-08-03T20:14:34.586Z,2.28
2022-08-03T20:17:54.670Z,3.00
2022-08-03T20:21:14.994Z,2.00
2022-08-03T20:24:28.139Z,1.80
2022-08-03T20:28:06.668Z,2.65
2022-08-03T20:31:05.324Z,1.90
2022-08-03T20:34:11.702Z,2.40
2022-08-03T20:37:23.988Z,3.70
2022-08-03T20:40:33.760Z,4.78
2022-08-03T20:43:39.565Z,3.70
2022-08-03T20:46:53.470Z,2.92
2022-08-03T20:50:07.578Z,2.53
2022-08-03T20:53:15.031Z,3.53
2022-08-03T20:56:40.381Z,3.25
2022-08-03T20:59:55.007Z,3.83
2022-08-03T21:03:03.937Z,2.58
2022-08-03T21:06:15.342Z,2.38
2022-08-03T21:09:33.453Z,2.35
2022-08-03T21:12:45.560Z,2.20
2022-08-03T21:12:58.149Z,1.27
2022-08-03T21:16:07.017Z,2.15
2022-08-03T21:19:19.365Z,2.47
2022-08-03T21:22:30.110Z,2.05
2022-08-03T21:25:40.424Z,1.80
2022-08-03T21:28:50.196Z,2.35
2022-08-03T21:31:57.805Z,2.30
2022-08-03T21:35:03.484Z,2.25
2022-08-03T21:38:21.013Z,1.77
2022-08-03T21:41:38.293Z,2.40
2022-08-03T21:44:43.554Z,2.00
2022-08-03T21:47:49.434Z,2.38
2022-08-03T21:50:55.362Z,1.88
2022-08-03T21:54:04.639Z,2.15
2022-08-03T21:57:15.167Z,2.13
2022-08-03T22:00:23.231Z,2.08
2022-08-03T22:03:29.374Z,2.10
2022-08-03T22:06:34.820Z,2.30
2022-08-03T22:09:40.054Z,2.60
2022-08-03T22:12:57.332Z,2.78
2022-08-03T22:16:02.943Z,2.72
2022-08-03T22:19:08.327Z,2.90
2022-08-03T22:22:14.522Z,3.33
2022-08-03T22:25:22.607Z,3.35
2022-08-03T22:28:31.400Z,2.80
2022-08-03T22:31:58.222Z,2.95
2022-08-03T22:35:07.336Z,2.92
2022-08-03T22:38:12.692Z,3.30
2022-08-03T22:41:19.527Z,3.30
2022-08-03T22:44:26.573Z,3.45
2022-08-03T22:47:35.472Z,3.97
2022-08-03T22:50:42.132Z,3.65
2022-08-03T22:53:47.359Z,3.22
2022-08-03T22:56:54.073Z,3.72
2022-08-03T23:00:00.884Z,3.10
2022-08-03T23:03:07.354Z,2.47
2022-08-03T23:06:13.031Z,3.28
2022-08-03T23:09:22.326Z,2.97
2022-08-03T23:12:29.532Z,2.63
2022-08-03T23:15:36.890Z,2.33
2022-08-03T23:18:43.470Z,2.80
2022-08-03T23:22:00.046Z,2.40
2022-08-03T23:25:09.382Z,2.40
2022-08-03T23:28:16.596Z,2.40
2022-08-03T23:31:24.175Z,2.53
2022-08-03T23:34:48.921Z,2.45
2022-08-03T23:38:05.284Z,2.90
2022-08-03T23:41:22.044Z,2.78
2022-08-03T23:44:30.639Z,2.45
2022-08-03T23:47:46.867Z,3.58
2022-08-03T23:50:58.830Z,3.05
2022-08-03T23:54:10.851Z,3.03
2022-08-03T23:57:24.168Z,3.20
